Time;durP1;ratioP1;P1;durP2;ratioP2;P2;SDS_P1;SDS_P2;PMS_P1;PMS_P2;Temp;Humidity;BMP_temperature;BMP_pressure;BME280_temperature;BME280_humidity;BME280_pressure;Samples;Min_cycle;Max_cycle;Signal;HPM_P1;HPM_P2
2022/04/18 00:06:07;;;;;;;19.92;11.90;;;;;;;15.10;62.00;100695.28;4977198;28;20059;-96
2022/04/18 00:08:38;;;;;;;17.65;10.50;;;;;;;15.06;61.96;100686.78;4975050;28;20043;-96
2022/04/18 00:11:05;;;;;;;16.27;7.85;;;;;;;14.78;62.51;100691.66;4976247;28;20047;-96
2022/04/18 00:13:38;;;;;;;14.57;7.53;;;;;;;15.11;61.46;100687.25;4980915;28;20050;-96
2022/04/18 00:16:58;;;;;;;10.70;5.03;;;;;;;15.29;61.35;100711.31;4965345;28;20042;-96
2022/04/18 00:19:30;;;;;;;9.32;3.22;;;;;;;15.06;61.40;100690.25;4961924;28;20032;-95
2022/04/18 00:21:57;;;;;;;6.28;2.15;;;;;;;15.04;61.21;100708.03;4977795;28;20000;-96
2022/04/18 00:24:27;;;;;;;8.00;1.85;;;;;;;14.98;61.29;100710.38;4975432;28;20031;-96
2022/04/18 00:27:04;;;;;;;10.32;1.52;;;;;;;14.82;61.09;100693.09;4978635;28;20478;-96
2022/04/18 00:29:58;;;;;;;7.70;2.10;;;;;;;14.79;61.62;100700.44;4996248;28;20068;-96
2022/04/18 00:33:25;;;;;;;;;;;;;;;;;;;;;
2022/04/18 00:36:52;;;;;;;;;;;;;;;;;;;;;
2022/04/18 00:39:18;;;;;;;10.05;1.52;;;;;;;14.41;62.28;100684.03;5142066;23;20077;-96
2022/04/18 00:41:46;;;;;;;13.00;1.30;;;;;;;14.49;62.05;100696.63;4994153;28;20015;-95
2022/04/18 00:44:16;;;;;;;11.63;1.48;;;;;;;14.40;61.69;100679.72;4997065;28;20054;-95
2022/04/18 00:46:47;;;;;;;8.50;1.30;;;;;;;14.50;61.77;100711.53;4996558;28;20039;-96
2022/04/18 00:49:13;;;;;;;12.32;2.03;;;;;;;14.16;62.31;100685.16;4997139;28;20015;-96
2022/04/18 00:51:41;;;;;;;14.43;1.67;;;;;;;14.12;62.28;100686.34;4996297;28;20069;-96
2022/04/18 00:54:21;;;;;;;13.50;1.67;;;;;;;14.08;62.35;100680.47;4998283;28;20022;-96
2022/04/18 00:56:54;;;;;;;13.95;1.45;;;;;;;14.13;62.31;100706.50;4997081;28;20409;-96
2022/04/18 00:59:26;;;;;;;6.15;1.08;;;;;;;14.00;62.45;100700.47;4996527;28;20023;-96
2022/04/18 01:02:13;;;;;;;6.55;1.30;;;;;;;13.95;62.18;100692.94;4996828;28;20098;-96
2022/04/18 01:04:42;;;;;;;5.43;0.77;;;;;;;13.93;62.32;100691.38;4992837;28;20097;-95
2022/04/18 01:07:25;;;;;;;8.82;1.23;;;;;;;13.97;62.53;100698.09;4993639;28;20023;-95
2022/04/18 01:09:51;;;;;;;8.07;1.00;;;;;;;13.86;62.87;100693.63;4991332;28;20034;-96
2022/04/18 01:12:24;;;;;;;8.45;1.45;;;;;;;13.74;63.17;100690.13;4976002;28;20051;-96
2022/04/18 01:14:50;;;;;;;10.85;1.38;;;;;;;13.79;63.11;100693.28;4990939;28;20194;-96
2022/04/18 01:17:16;;;;;;;6.97;1.52;;;;;;;13.78;62.99;100682.81;4997519;28;20305;-94
2022/04/18 01:19:49;;;;;;;7.55;1.13;;;;;;;13.92;62.90;100702.88;4991572;28;20030;-96
2022/04/18 01:22:22;;;;;;;10.95;1.23;;;;;;;13.80;63.33;100687.06;4996364;28;20022;-96
2022/04/18 01:31:03;;;;;;;;;;;;;;;13.87;64.03;100695.31;4994880;28;20058;-96
2022/04/18 01:33:33;;;;;;;5.90;1.50;;;;;;;13.76;63.64;100672.38;4991376;28;19914;-96
2022/04/18 01:36:24;;;;;;;4.95;0.90;;;;;;;13.84;63.44;100671.78;4995356;28;20023;-96
2022/04/18 01:39:19;;;;;;;;;;;;;;;;;;;;;
2022/04/18 01:41:51;;;;;;;8.25;2.20;;;;;;;13.83;62.92;100673.59;5141026;23;20055;-96
2022/04/18 01:44:44;;;;;;;4.72;1.10;;;;;;;13.93;62.93;100694.00;4976417;28;20083;-96
2022/04/18 01:47:30;;;;;;;9.52;1.58;;;;;;;13.83;62.51;100689.44;4974966;28;20398;-96
2022/04/18 01:49:55;;;;;;;6.47;1.00;;;;;;;13.65;63.00;100670.59;4971827;28;20066;-96
2022/04/18 01:52:21;;;;;;;8.43;1.10;;;;;;;13.71;63.09;100677.19;4961326;28;20046;-96
2022/04/18 01:54:47;;;;;;;5.40;0.95;;;;;;;13.54;63.34;100673.19;4977120;28;20031;-96
2022/04/18 01:57:43;;;;;;;3.67;0.70;;;;;;;13.52;63.10;100676.91;4977492;28;20039;-96
2022/04/18 02:00:09;;;;;;;5.18;0.93;;;;;;;13.43;63.34;100674.03;4976483;28;20035;-96
2022/04/18 02:02:44;;;;;;;9.80;1.45;;;;;;;13.40;63.29;100674.25;4972080;28;20023;-96
2022/04/18 02:05:43;;;;;;;8.45;1.10;;;;;;;13.34;63.02;100672.06;4962664;28;20027;-96
2022/04/18 02:08:24;;;;;;;8.13;1.25;;;;;;;13.15;64.01;100669.09;4979829;28;20022;-96
2022/04/18 02:11:05;;;;;;;11.95;1.30;;;;;;;13.27;63.30;100665.56;4977967;28;20070;-96
2022/04/18 02:16:12;;;;;;;5.47;1.35;;;;;;;13.17;63.55;100667.19;5026088;23;20038;-96
2022/04/18 02:18:38;;;;;;;8.55;1.63;;;;;;;13.33;63.48;100685.38;4975559;28;20030;-96
2022/04/18 02:21:12;;;;;;;13.48;2.10;;;;;;;13.24;64.20;100689.50;4988336;28;20042;-96
2022/04/18 02:23:45;;;;;;;13.57;1.77;;;;;;;13.05;63.76;100656.63;4991262;28;20019;-96
2022/04/18 02:26:12;;;;;;;7.68;1.58;;;;;;;13.10;63.89;100664.19;4993507;28;20453;-96
2022/04/18 02:28:56;;;;;;;7.88;1.52;;;;;;;13.19;63.57;100683.72;4997052;28;20102;-96
2022/04/18 02:31:25;;;;;;;7.38;1.20;;;;;;;13.03;63.97;100663.81;4991051;28;20058;-96
2022/04/18 02:33:54;;;;;;;9.18;2.60;;;;;;;12.95;63.91;100652.97;4996760;28;20054;-96
2022/04/18 02:36:27;;;;;;;9.23;1.45;;;;;;;12.87;63.69;100657.97;4995014;28;20026;-95
2022/04/18 02:38:55;;;;;;;3.55;0.70;;;;;;;12.79;64.72;100655.06;4980164;28;20031;-96
2022/04/18 02:41:21;;;;;;;12.30;1.70;;;;;;;12.96;64.51;100674.91;4989619;28;20022;-96
2022/04/18 02:43:47;;;;;;;8.13;2.05;;;;;;;12.98;63.98;100673.84;4993061;28;20023;-96
2022/04/18 02:46:13;;;;;;;13.23;2.28;;;;;;;12.90;64.14;100684.94;4998496;28;20018;-96
2022/04/18 02:48:53;;;;;;;;;;;;;;;;;;;;;
2022/04/18 02:51:27;;;;;;;6.85;1.17;;;;;;;12.76;64.55;100656.13;4997924;28;20066;-96
2022/04/18 02:53:59;;;;;;;6.35;1.05;;;;;;;12.78;64.33;100650.75;4998258;28;20095;-96
2022/04/18 02:56:25;;;;;;;9.95;1.48;;;;;;;12.85;64.08;100673.03;4994301;28;20027;-96
2022/04/18 02:58:51;;;;;;;10.85;1.50;;;;;;;12.64;64.60;100654.38;4990045;28;20067;-96
2022/04/18 03:01:17;;;;;;;10.07;1.80;;;;;;;12.72;64.58;100664.34;4987062;28;20532;-96
2022/04/18 03:03:47;;;;;;;6.75;1.27;;;;;;;12.69;64.28;100655.72;4988724;28;20030;-96
2022/04/18 03:06:38;;;;;;;10.57;1.65;;;;;;;12.70;64.03;100662.69;4978845;28;20544;-96
2022/04/18 03:09:10;;;;;;;6.13;1.20;;;;;;;12.65;64.01;100653.44;4995003;28;20035;-96
2022/04/18 03:11:45;;;;;;;7.45;1.42;;;;;;;12.58;64.05;100658.31;4990361;28;20043;-96
2022/04/18 03:14:13;;;;;;;10.93;1.65;;;;;;;12.68;64.12;100680.41;4980861;28;20062;-96
2022/04/18 03:16:42;;;;;;;6.55;1.15;;;;;;;12.52;64.04;100658.75;5085814;23;20047;-96
2022/04/18 03:19:08;;;;;;;7.63;1.00;;;;;;;12.45;63.95;100655.69;4982250;28;20035;-96
2022/04/18 03:21:41;;;;;;;7.85;1.50;;;;;;;12.43;64.34;100652.34;4998132;28;20047;-96
2022/04/18 03:24:13;;;;;;;6.95;1.33;;;;;;;12.51;64.58;100662.31;5064458;23;20106;-96
2022/04/18 03:29:22;;;;;;;10.75;1.90;;;;;;;12.77;64.85;100688.56;5179632;23;20054;-96
2022/04/18 03:31:49;;;;;;;11.82;1.85;;;;;;;12.78;64.32;100663.94;4982943;28;20027;-96
2022/04/18 03:34:17;;;;;;;13.85;2.17;;;;;;;12.78;64.67;100658.66;4996867;28;20031;-94
2022/04/18 03:42:15;;;;;;;9.55;1.60;;;;;;;13.00;64.44;100668.44;4992905;28;20054;-96
2022/04/18 03:44:47;;;;;;;6.93;1.40;;;;;;;13.16;64.12;100676.06;4993989;28;20106;-96
2022/04/18 03:47:15;;;;;;;13.18;1.88;;;;;;;13.07;64.22;100659.13;4992861;28;20061;-95
2022/04/18 03:49:48;;;;;;;10.13;2.40;;;;;;;13.23;64.10;100682.53;4990891;28;20029;-95
2022/04/18 03:52:13;;;;;;;12.05;2.95;;;;;;;13.05;63.92;100661.03;4989963;28;20014;-96
2022/04/18 03:54:40;;;;;;;12.07;2.85;;;;;;;13.08;63.83;100677.47;4989548;28;20031;-96
2022/04/18 03:57:06;;;;;;;10.25;2.28;;;;;;;13.11;64.06;100686.94;4988346;28;20049;-96
2022/04/18 03:59:35;;;;;;;13.35;2.22;;;;;;;12.87;64.23;100655.31;4988262;28;20081;-96
2022/04/18 04:02:00;;;;;;;10.90;2.05;;;;;;;12.82;64.61;100654.84;4989339;28;20429;-96
2022/04/18 04:04:29;;;;;;;6.55;1.77;;;;;;;12.98;64.35;100681.75;4987275;28;20073;-96
2022/04/18 04:06:55;;;;;;;8.13;1.77;;;;;;;12.97;64.01;100682.69;4987066;28;20022;-95
2022/04/18 04:09:20;;;;;;;6.93;1.40;;;;;;;12.82;64.34;100665.38;4987731;28;20062;-95
2022/04/18 04:11:46;;;;;;;10.43;1.95;;;;;;;12.81;64.15;100664.50;4984924;28;20037;-96
2022/04/18 04:14:12;;;;;;;18.05;2.60;;;;;;;12.65;64.57;100659.53;4983515;28;20091;-96
2022/04/18 04:16:40;;;;;;;9.55;2.28;;;;;;;12.81;64.74;100677.69;4985430;28;20034;-96
2022/04/18 04:19:06;;;;;;;13.27;2.28;;;;;;;12.57;64.62;100653.97;4985786;28;20031;-96
2022/04/18 04:21:36;;;;;;;10.18;1.83;;;;;;;12.55;64.78;100652.41;4985189;28;20023;-96
2022/04/18 04:24:02;;;;;;;11.27;2.53;;;;;;;12.59;64.53;100661.78;4986155;28;20027;-96
2022/04/18 04:26:28;;;;;;;13.07;2.13;;;;;;;12.49;64.66;100656.31;4985480;28;20038;-96
2022/04/18 04:28:54;;;;;;;14.18;2.20;;;;;;;12.63;64.41;100671.97;4986523;28;20117;-96
2022/04/18 04:31:20;;;;;;;10.27;1.88;;;;;;;12.49;64.97;100651.06;4987445;28;20081;-96
2022/04/18 04:33:46;;;;;;;11.85;1.75;;;;;;;12.39;64.68;100639.50;4987848;28;20046;-95
2022/04/18 04:36:20;;;;;;;9.30;1.50;;;;;;;12.76;63.76;100644.75;4987314;28;20027;-96
2022/04/18 04:38:46;;;;;;;15.98;2.95;;;;;;;12.36;64.74;100642.34;4986116;28;20030;-96
2022/04/18 04:41:12;;;;;;;11.32;1.70;;;;;;;12.15;65.32;100653.47;4986942;28;20049;-95
2022/04/18 04:43:41;;;;;;;12.63;2.00;;;;;;;12.09;65.40;100656.53;4991383;28;20035;-96
2022/04/18 04:46:06;;;;;;;9.82;1.63;;;;;;;12.01;65.61;100643.09;4992811;28;20030;-96
2022/04/18 04:48:51;;;;;;;10.90;1.65;;;;;;;12.01;65.85;100648.34;4994692;28;20023;-96
2022/04/18 04:51:17;;;;;;;12.80;2.78;;;;;;;12.08;66.06;100662.75;4993633;28;20026;-96
2022/04/18 04:53:50;;;;;;;11.90;1.95;;;;;;;12.12;66.37;100671.25;4993651;28;20027;-96
2022/04/18 04:56:25;;;;;;;8.00;1.70;;;;;;;11.96;65.94;100655.72;4994017;28;20050;-96
2022/04/18 04:58:53;;;;;;;12.25;1.67;;;;;;;11.95;66.25;100648.75;4994068;28;20051;-96
2022/04/18 05:01:23;;;;;;;14.43;1.65;;;;;;;11.96;66.28;100661.81;4994639;28;20094;-96
2022/04/18 05:03:52;;;;;;;13.10;2.38;;;;;;;11.89;66.22;100656.13;4994539;28;20027;-96
2022/04/18 05:06:24;;;;;;;15.50;5.50;;;;;;;11.90;66.89;100657.81;4976971;28;20099;-96
2022/04/18 05:08:49;;;;;;;12.95;2.50;;;;;;;11.94;66.82;100655.81;4992685;28;20027;-96
2022/04/18 05:11:18;;;;;;;16.77;2.28;;;;;;;11.99;66.65;100664.25;4990565;28;20085;-96
2022/04/18 05:13:44;;;;;;;14.52;2.40;;;;;;;12.17;67.00;100690.22;4977011;28;20587;-96
2022/04/18 05:16:10;;;;;;;10.90;2.20;;;;;;;12.00;67.32;100662.44;4977314;28;20031;-96
2022/04/18 05:18:39;;;;;;;11.93;2.42;;;;;;;12.10;67.14;100664.34;4993247;28;20053;-96
2022/04/18 05:21:08;;;;;;;14.40;2.45;;;;;;;12.19;67.05;100662.84;4993637;28;20058;-96
2022/04/18 05:23:39;;;;;;;12.77;2.10;;;;;;;12.25;66.97;100670.28;4995534;28;20026;-96
2022/04/18 05:26:08;;;;;;;14.68;2.00;;;;;;;12.33;66.65;100671.56;4995497;28;20023;-95
2022/04/18 05:28:37;;;;;;;12.55;2.75;;;;;;;12.26;66.89;100664.09;4963091;28;20034;-95
2022/04/18 05:31:25;;;;;;;10.38;2.10;;;;;;;12.50;66.40;100681.72;5020475;23;20066;-94
2022/04/18 05:33:51;;;;;;;9.82;1.95;;;;;;;12.49;66.49;100680.03;4979986;28;20043;-94
2022/04/18 05:36:17;;;;;;;8.38;1.90;;;;;;;12.37;66.54;100659.84;4997720;28;20035;-94
2022/04/18 05:38:47;;;;;;;13.43;2.95;;;;;;;12.46;66.46;100683.72;4998048;28;20050;-95
2022/04/18 05:41:22;;;;;;;12.60;1.95;;;;;;;12.61;65.65;100663.34;4998611;28;20030;-95
2022/04/18 05:43:52;;;;;;;12.55;1.98;;;;;;;12.84;65.84;100684.56;4997411;28;20029;-96
2022/04/18 05:46:29;;;;;;;13.88;2.22;;;;;;;12.86;65.43;100683.47;4997057;28;20011;-95
2022/04/18 05:49:02;;;;;;;11.20;2.13;;;;;;;13.07;65.44;100702.16;4996678;28;20070;-95
2022/04/18 05:51:32;;;;;;;10.65;1.83;;;;;;;12.92;65.47;100682.19;4996926;28;20190;-94
2022/04/18 05:54:00;;;;;;;8.32;1.52;;;;;;;13.16;65.33;100705.06;4997515;28;20090;-95
2022/04/18 05:56:29;;;;;;;11.82;2.22;;;;;;;13.53;63.63;100682.06;4997317;28;20014;-95
2022/04/18 05:58:57;;;;;;;8.65;1.90;;;;;;;13.52;63.81;100676.91;4997944;28;20007;-96
2022/04/18 06:01:29;;;;;;;8.98;1.67;;;;;;;13.75;63.13;100683.91;4981276;28;20014;-95
2022/04/18 06:03:56;;;;;;;10.77;2.10;;;;;;;13.84;62.64;100679.72;4995307;28;20030;-93
2022/04/18 06:06:25;;;;;;;7.47;1.90;;;;;;;13.70;63.39;100693.97;4996346;28;20023;-95
2022/04/18 06:08:53;;;;;;;11.80;2.50;;;;;;;13.62;63.82;100689.28;4996550;28;20027;-95
2022/04/18 06:11:19;;;;;;;13.05;2.55;;;;;;;13.69;63.34;100690.50;4996025;28;20023;-94
2022/04/18 06:13:45;;;;;;;15.70;2.17;;;;;;;14.03;63.03;100721.38;4996219;28;20027;-95
2022/04/18 06:16:13;;;;;;;11.82;3.10;;;;;;;14.03;62.66;100694.97;4996730;28;20034;-95
2022/04/18 06:18:42;;;;;;;13.07;2.30;;;;;;;14.30;62.01;100726.31;4992917;28;20086;-96
2022/04/18 06:21:13;;;;;;;8.35;2.33;;;;;;;14.32;61.93;100713.00;4990480;28;20027;-96
2022/04/18 06:23:39;;;;;;;13.35;2.13;;;;;;;14.39;61.68;100701.78;4988053;28;20029;-96
2022/04/18 06:26:04;;;;;;;13.32;2.90;;;;;;;14.49;61.66;100707.19;4989276;28;20393;-96
2022/04/18 06:31:18;;;;;;;10.43;2.08;;;;;;;14.68;61.06;100720.66;4985387;28;20054;-95
2022/04/18 06:33:44;;;;;;;9.88;2.58;;;;;;;14.82;60.69;100721.34;4988131;28;20031;-95
2022/04/18 06:36:10;;;;;;;15.32;2.67;;;;;;;14.65;60.60;100720.91;4988759;28;20045;-96
2022/04/18 06:38:37;;;;;;;16.48;2.58;;;;;;;14.66;60.96;100724.38;4972662;28;20061;-96
2022/04/18 06:41:04;;;;;;;11.82;2.28;;;;;;;14.73;60.48;100725.59;4991156;28;20034;-96
2022/04/18 06:43:33;;;;;;;14.35;2.53;;;;;;;14.72;60.77;100726.53;4972592;28;20062;-96
2022/04/18 06:45:59;;;;;;;19.70;2.63;;;;;;;14.86;60.68;100726.25;4993051;28;20022;-96
2022/04/18 06:48:58;;;;;;;19.73;3.65;;;;;;;14.88;60.31;100723.50;4991122;28;20068;-96
2022/04/18 06:51:23;;;;;;;7.10;1.73;;;;;;;15.05;59.97;100725.59;4976537;28;20043;-96
2022/04/18 06:53:49;;;;;;;14.35;2.72;;;;;;;15.05;60.09;100730.91;4993245;28;20069;-96
2022/04/18 06:59:01;;;;;;;10.45;2.60;;;;;;;15.12;59.28;100730.38;4994189;28;20058;-96
2022/04/18 07:01:28;;;;;;;13.90;2.75;;;;;;;15.24;59.05;100739.94;4993699;28;20042;-96
2022/04/18 07:03:56;;;;;;;10.82;2.17;;;;;;;15.36;58.91;100762.75;4991716;28;20030;-96
2022/04/18 07:06:42;;;;;;;22.73;3.50;;;;;;;15.23;58.92;100740.94;4983226;28;20006;-96
2022/04/18 07:17:10;;;;;;;10.65;2.63;;;;;;;15.45;58.52;100754.06;4979765;28;20051;-96
2022/04/18 07:19:46;;;;;;;9.90;2.35;;;;;;;15.76;58.43;100778.00;4979506;28;20020;-96
2022/04/18 07:22:17;;;;;;;20.88;3.05;;;;;;;15.75;58.01;100746.38;4974185;28;20027;-96
2022/04/18 07:24:48;;;;;;;15.85;2.47;;;;;;;16.08;56.98;100760.38;4972554;28;20035;-96
2022/04/18 07:27:17;;;;;;;12.07;2.63;;;;;;;16.21;57.22;100759.19;4956017;28;20155;-95
2022/04/18 07:29:45;;;;;;;20.20;2.92;;;;;;;16.38;56.34;100747.09;4969982;28;20030;-96
2022/04/18 07:32:10;;;;;;;16.85;2.53;;;;;;;16.59;55.59;100755.00;4955831;28;20130;-96
2022/04/18 07:34:47;;;;;;;10.15;2.17;;;;;;;16.74;55.67;100762.56;4976491;28;20027;-96
2022/04/18 07:37:16;;;;;;;13.38;2.58;;;;;;;16.82;55.39;100755.66;4963451;28;20042;-96
2022/04/18 07:40:19;;;;;;;10.63;2.05;;;;;;;17.02;54.92;100774.25;4978782;28;20031;-96
2022/04/18 07:42:51;;;;;;;11.32;2.30;;;;;;;16.87;55.22;100752.59;4975113;28;20038;-96
2022/04/18 07:45:22;;;;;;;13.30;2.75;;;;;;;17.32;54.63;100768.00;4958746;28;20035;-96
2022/04/18 07:53:36;;;;;;;15.95;3.38;;;;;;;17.96;51.26;100747.13;4995037;28;20041;-95
2022/04/18 07:56:08;;;;;;;15.70;2.85;;;;;;;18.41;51.15;100749.09;4998571;28;20046;-95
2022/04/18 07:58:41;;;;;;;13.90;2.60;;;;;;;18.99;50.30;100754.09;5000016;28;20030;-95
2022/04/18 08:01:19;;;;;;;12.02;3.28;;;;;;;19.20;47.94;100747.66;4980108;28;20058;-96
2022/04/18 08:03:47;;;;;;;12.85;2.50;;;;;;;19.48;48.56;100758.22;4997914;28;20023;-95
2022/04/18 08:06:16;;;;;;;12.55;2.28;;;;;;;20.12;47.10;100766.84;4980198;28;20039;-96
2022/04/18 08:08:56;;;;;;;12.18;2.50;;;;;;;20.44;46.38;100746.66;4997803;28;20014;-96
2022/04/18 08:11:27;;;;;;;9.23;1.80;;;;;;;20.71;45.59;100748.31;4999844;28;20019;-96
2022/04/18 08:17:20;;;;;;;7.85;2.58;;;;;;;21.10;44.74;100756.56;5000194;28;20041;-96
2022/04/18 08:45:35;;;;;;;;;;;;;;;21.23;40.99;100772.13;4977682;28;20047;-96
2022/04/18 08:53:44;;;;;;;9.68;2.40;;;;;;;21.27;39.48;100748.56;5048079;23;20073;-96
2022/04/18 08:56:50;;;;;;;9.95;1.63;;;;;;;21.59;38.18;100766.50;5309158;23;20051;-96
2022/04/18 08:59:17;;;;;;;8.88;1.83;;;;;;;21.76;37.72;100749.47;5294862;23;20046;-96
2022/04/18 09:01:59;;;;;;;7.53;1.58;;;;;;;21.87;38.64;100747.44;4997594;28;20027;-96
2022/04/18 09:04:31;;;;;;;8.70;2.28;;;;;;;21.68;38.86;100752.16;4992691;28;20065;-96
2022/04/18 09:07:19;;;;;;;8.02;1.77;;;;;;;22.04;38.37;100743.72;4996626;28;20130;-96
2022/04/18 09:09:54;;;;;;;7.88;2.00;;;;;;;22.04;38.24;100751.75;4981114;28;20062;-96
2022/04/18 09:15:49;;;;;;;3.40;1.10;;;;;;;22.55;37.12;100746.06;5333012;23;20054;-96
2022/04/18 09:18:52;;;;;;;5.30;1.48;;;;;;;22.66;36.91;100769.78;4991444;28;20123;-96
2022/04/18 09:21:44;;;;;;;5.88;1.48;;;;;;;22.63;37.05;100758.56;4989694;28;20035;-96
2022/04/18 09:24:35;;;;;;;7.75;1.55;;;;;;;23.10;35.66;100768.38;4992325;28;20066;-96
2022/04/18 09:27:31;;;;;;;9.23;1.73;;;;;;;23.12;35.92;100766.38;4990415;28;20026;-96
2022/04/18 09:30:11;;;;;;;5.63;1.25;;;;;;;23.11;35.98;100745.97;4997976;28;20031;-96
2022/04/18 09:32:59;;;;;;;4.72;1.40;;;;;;;22.99;35.78;100742.00;4993967;28;20031;-96
2022/04/18 09:35:32;;;;;;;5.93;1.60;;;;;;;23.31;36.11;100757.03;4995582;28;20058;-96
2022/04/18 09:38:09;;;;;;;7.35;1.30;;;;;;;23.47;35.25;100740.00;4996735;28;20018;-96
2022/04/18 09:41:07;;;;;;;5.85;2.25;;;;;;;23.90;35.23;100757.22;4997316;28;20107;-96
2022/04/18 09:44:04;;;;;;;10.15;2.15;;;;;;;24.33;34.88;100743.16;4996948;28;20030;-96
2022/04/18 09:46:46;;;;;;;11.85;2.10;;;;;;;24.62;32.35;100736.94;4997382;28;20022;-96
2022/04/18 09:49:19;;;;;;;10.23;1.60;;;;;;;24.70;32.06;100730.63;4997199;28;20098;-96
2022/04/18 09:55:22;;;;;;;8.93;1.88;;;;;;;24.14;32.41;100728.44;5026491;23;20042;-96
2022/04/18 09:57:54;;;;;;;8.70;1.60;;;;;;;24.24;33.22;100729.00;4998902;28;20019;-96
2022/04/18 10:03:25;;;;;;;6.38;1.42;;;;;;;23.76;35.40;100734.69;4998295;28;20046;-95
2022/04/18 10:06:36;;;;;;;7.15;1.90;;;;;;;24.05;34.66;100754.56;4993014;28;20090;-96
2022/04/18 10:09:25;;;;;;;9.15;1.73;;;;;;;23.72;35.04;100735.25;4981944;28;20066;-96
2022/04/18 10:12:22;;;;;;;7.22;2.45;;;;;;;23.22;36.28;100734.81;4995132;28;20027;-95
2022/04/18 10:14:48;;;;;;;6.20;1.90;;;;;;;22.81;37.62;100737.75;4991051;28;20445;-95
2022/04/18 10:17:24;;;;;;;6.00;1.42;;;;;;;22.66;38.07;100739.50;4985368;28;20027;-95
2022/04/18 10:20:20;;;;;;;9.93;1.85;;;;;;;22.94;38.16;100759.41;4974824;28;20049;-96
2022/04/18 10:23:23;;;;;;;10.73;2.08;;;;;;;23.67;35.99;100751.84;4996015;28;20023;-96
2022/04/18 10:26:07;;;;;;;10.13;1.75;;;;;;;24.71;33.92;100737.66;4986546;28;20043;-96
2022/04/18 10:28:40;;;;;;;9.60;1.52;;;;;;;25.16;32.62;100726.75;4993358;28;20158;-96
2022/04/18 10:31:20;;;;;;;;;;;;;;;26.05;30.77;100735.16;4971061;28;20022;-96
2022/04/18 10:33:46;;;;;;;9.63;1.50;;;;;;;26.55;29.49;100729.59;4979326;28;20360;-96
2022/04/18 10:36:12;;;;;;;4.32;1.70;;;;;;;26.56;29.63;100741.19;4977367;28;20038;-95
2022/04/18 10:38:40;;;;;;;8.30;1.35;;;;;;;26.15;30.63;100745.56;4985702;28;20019;-95
2022/04/18 10:41:39;;;;;;;10.30;2.63;;;;;;;24.57;31.38;100735.84;4988253;28;20027;-94
2022/04/18 10:44:09;;;;;;;5.47;1.65;;;;;;;23.82;33.50;100754.59;4972070;28;20568;-94
2022/04/18 10:46:36;;;;;;;7.07;1.17;;;;;;;23.68;33.46;100731.28;4975839;28;20597;-96
2022/04/18 10:49:15;;;;;;;8.60;2.22;;;;;;;22.96;34.93;100749.34;4975629;28;20046;-95
2022/04/18 10:51:41;;;;;;;6.80;1.73;;;;;;;22.67;35.64;100743.84;4976752;28;20042;-95
2022/04/18 10:54:29;;;;;;;3.70;1.30;;;;;;;22.51;35.93;100742.06;4975184;28;20031;-94
2022/04/18 10:56:56;;;;;;;7.95;1.90;;;;;;;21.99;36.37;100749.56;4975626;28;20035;-96
2022/04/18 10:59:28;;;;;;;5.70;1.40;;;;;;;21.82;37.57;100750.63;4975452;28;20034;-95
2022/04/18 11:01:55;;;;;;;7.80;1.95;;;;;;;21.49;37.80;100739.13;4975307;28;20019;-95
2022/04/18 11:04:29;;;;;;;7.28;2.35;;;;;;;21.37;38.12;100728.75;4975039;28;20046;-94
2022/04/18 11:07:05;;;;;;;5.95;1.50;;;;;;;21.34;38.85;100739.75;4976150;28;20029;-95
2022/04/18 11:09:52;;;;;;;4.10;1.40;;;;;;;21.39;39.12;100742.75;4975902;28;20019;-94
2022/04/18 11:12:20;;;;;;;6.20;1.63;;;;;;;21.34;38.86;100742.41;4974625;28;20034;-95
2022/04/18 11:14:51;;;;;;;13.60;2.95;;;;;;;21.23;38.93;100745.44;4976536;28;20113;-94
2022/04/18 11:17:37;;;;;;;8.05;2.00;;;;;;;21.44;38.96;100712.91;4976558;28;20034;-94
2022/04/18 11:20:28;;;;;;;7.03;1.88;;;;;;;22.22;38.49;100729.31;4975080;28;20125;-95
2022/04/18 11:23:22;;;;;;;7.55;2.15;;;;;;;22.94;36.25;100735.31;4975264;28;20037;-95
2022/04/18 11:26:01;;;;;;;10.82;1.83;;;;;;;32.61;24.82;100733.63;4973460;28;20030;-91
2022/04/18 11:28:35;;;;;;;5.95;1.23;;;;;;;39.23;18.32;100723.59;4972863;28;20027;-91
2022/04/18 11:31:00;;;;;;;4.70;1.05;;;;;;;39.83;17.21;100726.00;4972985;28;20033;-92
2022/04/18 11:33:26;;;;;;;10.35;2.80;;;;;;;40.41;15.64;100731.38;4977453;28;20093;-92
2022/04/18 11:35:59;;;;;;;7.22;1.02;;;;;;;41.38;14.68;100719.94;4985329;28;20029;-93
2022/04/18 11:38:25;;;;;;;6.68;1.85;;;;;;;44.74;12.84;100729.47;4986166;28;20022;-96
2022/04/18 11:40:50;;;;;;;4.70;1.00;;;;;;;45.76;11.60;100714.06;4978563;28;20088;-96
2022/04/18 11:43:17;;;;;;;5.63;1.17;;;;;;;46.11;12.10;100724.94;4977294;28;20035;-96
2022/04/18 11:45:48;;;;;;;4.10;1.13;;;;;;;45.33;11.52;100740.00;4980242;28;20034;-96
2022/04/18 11:48:14;;;;;;;4.38;1.17;;;;;;;37.61;15.63;100716.78;4975051;28;20035;-96
2022/04/18 11:50:47;;;;;;;6.45;1.33;;;;;;;40.23;14.90;100732.97;4976903;28;20029;-96
2022/04/18 11:53:16;;;;;;;2.78;1.00;;;;;;;42.01;14.19;100716.50;4976908;28;20485;-96
2022/04/18 12:07:21;;;;;;;5.97;1.33;;;;;;;38.15;16.42;100707.81;4979720;28;20125;-96
2022/04/18 12:09:47;;;;;;;9.05;1.25;;;;;;;38.13;16.43;100710.03;4978693;28;20055;-96
2022/04/18 12:12:28;;;;;;;6.55;2.10;;;;;;;37.03;17.79;100687.78;4977935;28;20396;-96
2022/04/18 12:14:59;;;;;;;5.80;1.45;;;;;;;33.71;18.67;100695.19;4976773;28;20077;-96
2022/04/18 12:17:25;;;;;;;7.68;1.23;;;;;;;32.32;20.00;100698.25;4976654;28;20512;-96
2022/04/18 12:19:52;;;;;;;10.23;1.38;;;;;;;32.17;21.16;100711.50;4976751;28;20031;-96
2022/04/18 12:22:24;;;;;;;7.82;1.05;;;;;;;33.79;19.26;100692.06;4976604;28;20029;-96
2022/04/18 12:24:50;;;;;;;4.78;1.17;;;;;;;34.14;19.79;100689.00;4976823;28;20066;-96
2022/04/18 12:27:16;;;;;;;2.50;0.88;;;;;;;32.89;20.61;100688.44;4977660;28;20026;-96
2022/04/18 12:29:43;;;;;;;3.88;0.90;;;;;;;33.61;19.82;100673.25;4977349;28;20509;-96
2022/04/18 12:32:26;;;;;;;5.55;1.10;;;;;;;35.03;18.53;100677.88;4977385;28;20061;-96
2022/04/18 12:34:52;;;;;;;4.13;1.48;;;;;;;35.48;18.64;100684.78;4976624;28;20023;-96
2022/04/18 12:37:28;;;;;;;4.97;1.25;;;;;;;34.09;19.38;100677.19;4978612;28;20030;-96
2022/04/18 12:40:14;;;;;;;7.90;1.45;;;;;;;32.03;21.45;100678.38;4977891;28;20109;-95
2022/04/18 12:42:39;;;;;;;7.70;2.00;;;;;;;32.47;21.34;100677.88;4975961;28;20027;-96
2022/04/18 12:45:05;;;;;;;5.05;0.82;;;;;;;31.57;21.26;100685.50;4975900;28;20031;-96
2022/04/18 12:47:37;;;;;;;3.58;1.00;;;;;;;31.93;21.60;100700.69;4977403;28;20058;-96
2022/04/18 12:50:13;;;;;;;5.28;1.10;;;;;;;31.11;22.68;100682.50;4975978;28;20106;-96
2022/04/18 12:52:51;;;;;;;5.20;1.10;;;;;;;30.08;22.83;100680.78;4976031;28;20023;-96
2022/04/18 12:55:25;;;;;;;3.97;0.98;;;;;;;29.27;23.51;100684.25;4975763;28;20030;-96
2022/04/18 12:57:50;;;;;;;5.65;1.13;;;;;;;28.60;23.82;100693.88;4975309;28;20031;-96
2022/04/18 13:00:16;;;;;;;5.38;1.05;;;;;;;28.19;25.30;100682.38;4975427;28;20033;-96
2022/04/18 13:02:58;;;;;;;4.90;1.08;;;;;;;28.54;25.52;100684.75;4975907;28;20057;-96
2022/04/18 13:05:28;;;;;;;12.70;1.48;;;;;;;28.37;25.92;100695.19;4975817;28;20030;-96
2022/04/18 13:08:05;;;;;;;4.00;1.20;;;;;;;28.37;25.36;100678.97;4975817;28;20122;-96
2022/04/18 13:10:33;;;;;;;4.30;0.85;;;;;;;27.99;26.49;100668.97;4975234;28;20054;-96
2022/04/18 13:13:07;;;;;;;3.75;1.00;;;;;;;27.89;27.11;100692.88;4975914;28;20030;-96
2022/04/18 13:15:34;;;;;;;6.43;1.00;;;;;;;27.73;25.70;100666.31;4976691;28;20043;-96
2022/04/18 13:18:19;;;;;;;7.07;1.45;;;;;;;27.28;26.29;100675.91;4978326;28;20098;-96
2022/04/18 13:20:45;;;;;;;6.18;1.30;;;;;;;27.46;27.55;100693.31;4978487;28;20400;-96
2022/04/18 13:23:11;;;;;;;5.93;1.45;;;;;;;26.84;26.80;100680.00;4975793;28;20046;-96
2022/04/18 13:25:38;;;;;;;5.85;1.48;;;;;;;27.04;27.42;100663.03;4975536;28;20118;-96
2022/04/18 13:28:07;;;;;;;5.32;1.67;;;;;;;27.01;27.74;100674.19;4975474;28;20385;-95
2022/04/18 13:30:36;;;;;;;5.65;1.10;;;;;;;27.07;26.50;100668.84;4975396;28;20463;-96
2022/04/18 13:33:01;;;;;;;5.95;1.40;;;;;;;27.05;27.37;100664.66;4975253;28;20022;-96